Time;durP1;ratioP1;P1;durP2;ratioP2;P2;SDS_P1;SDS_P2;PMS_P1;PMS_P2;Temp;Humidity;BMP_temperature;BMP_pressure;BME280_temperature;BME280_humidity;BME280_pressure;Samples;Min_cycle;Max_cycle;Signal;HPM_P1;HPM_P2
2023/01/29 00:00:45;;;;;;;;;;;;;;;25.24;38.84;94812.59;5030985;28;7121;-66
2023/01/29 00:03:13;;;;;;;;;;;;;;;25.26;38.82;94812.09;5036528;28;8703;-66
2023/01/29 00:05:40;;;;;;;;;;;;;;;25.25;38.66;94807.88;5051008;28;9114;-66
2023/01/29 00:08:08;;;;;;;;;;;;;;;25.26;38.21;94823.88;5047841;28;7188;-66
2023/01/29 00:10:35;;;;;;;;;;;;;;;25.28;38.78;94831.63;5044490;28;9809;-66
2023/01/29 00:13:02;;;;;;;;;;;;;;;25.29;37.88;94824.88;5039163;28;7076;-66
2023/01/29 00:16:09;;;;;;;;;;;;;;;25.29;38.54;94827.63;5048095;28;9121;-66
2023/01/29 00:18:39;;;;;;;;;;;;;;;25.27;38.57;94830.13;5073540;28;9054;-66
2023/01/29 00:21:25;;;;;;;;;;;;;;;25.27;38.21;94819.13;5033755;28;7363;-67
2023/01/29 00:23:59;;;;;;;;;;;;;;;25.27;38.51;94816.38;5045801;28;7306;-66
2023/01/29 00:26:37;;;;;;;;;;;;;;;25.28;38.87;94826.13;5041254;28;9359;-66
2023/01/29 00:29:04;;;;;;;;;;;;;;;25.27;38.74;94828.13;5035084;28;7265;-66
2023/01/29 00:31:33;;;;;;;;;;;;;;;25.27;38.01;94819.13;5044171;28;7296;-66
2023/01/29 00:34:05;;;;;;;;;;;;;;;25.29;38.83;94822.13;5044540;28;9207;-66
2023/01/29 00:36:35;;;;;;;;;;;;;;;25.28;37.80;94823.38;5036979;28;7016;-66
2023/01/29 00:39:11;;;;;;;;;;;;;;;25.28;38.17;94828.88;5032945;28;8652;-66
2023/01/29 00:45:43;;;;;;;;;;;;;;;25.27;38.80;94830.88;4964274;28;9126;-66
2023/01/29 00:48:13;;;;;;;;;;;;;;;25.27;38.51;94824.63;4916433;29;7059;-66
2023/01/29 00:50:39;;;;;;;;;;;;;;;25.25;37.95;94827.13;4930874;29;7277;-66
2023/01/29 00:53:06;;;;;;;;;;;;;;;25.26;37.90;94825.88;4928872;29;7450;-57
2023/01/29 00:55:33;;;;;;;;;;;;;;;25.28;38.71;94821.38;4911437;29;6946;-57
2023/01/29 00:58:01;;;;;;;;;;;;;;;25.30;38.54;94835.38;4933045;29;9031;-66
2023/01/29 01:00:29;;;;;;;;;;;;;;;25.29;38.50;94828.38;4916612;29;9022;-66
2023/01/29 01:03:05;;;;;;;;;;;;;;;25.29;38.59;94827.63;4905947;29;7185;-66
2023/01/29 01:05:34;;;;;;;;;;;;;;;25.30;37.94;94829.13;4910180;29;8895;-66
2023/01/29 01:08:02;;;;;;;;;;;;;;;25.28;38.06;94828.88;4918475;29;9047;-66
2023/01/29 01:10:32;;;;;;;;;;;;;;;25.30;38.67;94829.88;4919526;29;9098;-66
2023/01/29 01:13:01;;;;;;;;;;;;;;;25.29;37.88;94830.38;4911570;29;7275;-66
2023/01/29 01:15:38;;;;;;;;;;;;;;;25.30;38.58;94829.88;4906561;29;9127;-66
2023/01/29 01:18:04;;;;;;;;;;;;;;;25.30;38.26;94831.88;4910553;29;6997;-66
2023/01/29 01:20:38;;;;;;;;;;;;;;;25.29;37.62;94822.13;4922453;28;9277;-66
2023/01/29 01:23:04;;;;;;;;;;;;;;;25.30;37.76;94834.63;4970593;28;7273;-67
2023/01/29 01:25:32;;;;;;;;;;;;;;;25.30;38.33;94845.66;5050646;28;7229;-66
2023/01/29 01:27:59;;;;;;;;;;;;;;;25.28;38.31;94848.91;5021563;28;7110;-66
2023/01/29 01:30:31;;;;;;;;;;;;;;;25.29;38.33;94864.16;5044308;28;9075;-66
2023/01/29 01:33:00;;;;;;;;;;;;;;;25.31;38.01;94866.44;5071223;28;9276;-66
2023/01/29 01:35:26;;;;;;;;;;;;;;;25.28;38.72;94865.44;5045185;28;7137;-67
2023/01/29 01:37:52;;;;;;;;;;;;;;;25.31;38.41;94871.94;5057261;28;7675;-66
2023/01/29 01:40:23;;;;;;;;;;;;;;;25.29;38.40;94880.69;5037606;28;7052;-66
2023/01/29 01:42:54;;;;;;;;;;;;;;;25.28;38.35;94881.94;5038785;28;9388;-66
2023/01/29 01:45:28;;;;;;;;;;;;;;;25.28;38.22;94887.44;5047310;28;7331;-66
2023/01/29 01:48:23;;;;;;;;;;;;;;;25.30;38.49;94873.19;5040192;28;7244;-67
2023/01/29 01:51:20;;;;;;;;;;;;;;;25.31;38.55;94886.47;5047931;28;7294;-66
2023/01/29 01:54:23;;;;;;;;;;;;;;;25.32;38.41;94887.19;4992597;28;9238;-66
2023/01/29 01:57:15;;;;;;;;;;;;;;;25.29;38.31;94877.94;4918778;29;9305;-66
2023/01/29 02:00:11;;;;;;;;;;;;;;;25.29;37.71;94888.94;4919897;28;7248;-67
2023/01/29 02:12:16;;;;;;;;;;;;;;;25.29;37.66;94896.47;4877674;29;6987;-66
2023/01/29 02:14:44;;;;;;;;;;;;;;;25.28;38.19;94892.97;4872296;29;7270;-66
2023/01/29 02:17:20;;;;;;;;;;;;;;;25.32;38.50;94887.19;4873261;29;8751;-66
2023/01/29 02:20:05;;;;;;;;;;;;;;;25.32;38.65;94887.19;4872386;29;7519;-66
2023/01/29 02:22:55;;;;;;;;;;;;;;;25.32;38.70;94898.22;4873324;29;8963;-66
2023/01/29 02:25:39;;;;;;;;;;;;;;;25.33;38.40;94902.47;4874107;29;7287;-66
2023/01/29 02:28:33;;;;;;;;;;;;;;;25.34;38.36;94898.47;4876678;29;7477;-66
2023/01/29 02:31:31;;;;;;;;;;;;;;;25.32;37.71;94890.72;4904891;29;8459;-65
2023/01/29 02:34:23;;;;;;;;;;;;;;;25.32;38.34;94895.47;4979680;28;9481;-65
2023/01/29 02:37:08;;;;;;;;;;;;;;;25.31;38.20;94897.47;4981201;28;9047;-65
2023/01/29 02:39:41;;;;;;;;;;;;;;;25.33;38.27;94894.22;4970133;28;8627;-65
2023/01/29 02:42:12;;;;;;;;;;;;;;;25.31;37.60;94893.97;4978203;28;9125;-66
2023/01/29 02:44:53;;;;;;;;;;;;;;;25.33;37.68;94894.97;4979145;28;8698;-65
2023/01/29 02:47:39;;;;;;;;;;;;;;;25.35;37.86;94891.72;4984897;28;9034;-65
2023/01/29 02:50:19;;;;;;;;;;;;;;;25.34;38.07;94893.72;5075182;28;7012;-65
2023/01/29 02:53:20;;;;;;;;;;;;;;;25.34;38.47;94893.72;5045600;28;7488;-65
2023/01/29 02:56:06;;;;;;;;;;;;;;;25.35;37.73;94894.47;5034155;28;8758;-66
2023/01/29 02:58:41;;;;;;;;;;;;;;;25.35;38.43;94891.72;5052289;28;7057;-62
2023/01/29 03:01:19;;;;;;;;;;;;;;;25.35;38.60;94875.19;5056908;28;9339;-63
2023/01/29 03:03:54;;;;;;;;;;;;;;;25.34;38.21;94874.44;5038926;28;8838;-62
2023/01/29 03:06:45;;;;;;;;;;;;;;;25.34;37.99;94870.94;5046464;28;9058;-62
2023/01/29 03:09:43;;;;;;;;;;;;;;;25.36;37.68;94868.44;5040369;28;7781;-62
2023/01/29 03:12:32;;;;;;;;;;;;;;;25.36;37.98;94865.69;5055361;28;7111;-62
2023/01/29 03:15:29;;;;;;;;;;;;;;;25.35;38.21;94869.69;5040205;28;7973;-62
2023/01/29 03:18:21;;;;;;;;;;;;;;;25.33;37.83;94867.44;5045388;28;7223;-63
2023/01/29 03:21:49;;;;;;;;;;;;;;;25.33;38.01;94872.94;5035096;28;8895;-63
2023/01/29 03:32:29;;;;;;;;;;;;;;;25.33;38.25;94861.94;5044445;28;7435;-63
2023/01/29 03:35:02;;;;;;;;;;;;;;;25.31;37.79;94869.19;5049756;28;9067;-63
2023/01/29 03:37:40;;;;;;;;;;;;;;;25.32;38.52;94862.41;5044473;28;7154;-63
2023/01/29 03:40:08;;;;;;;;;;;;;;;25.31;37.75;94874.69;5062662;28;8975;-63
2023/01/29 03:42:43;;;;;;;;;;;;;;;25.32;37.74;94873.44;5050685;28;7499;-63
2023/01/29 03:45:35;;;;;;;;;;;;;;;25.31;37.73;94871.94;5044742;28;8908;-63
2023/01/29 03:48:32;;;;;;;;;;;;;;;25.33;38.33;94872.19;5037499;28;8736;-63
2023/01/29 03:51:39;;;;;;;;;;;;;;;25.33;37.53;94869.44;5033272;28;7060;-63
2023/01/29 03:54:25;;;;;;;;;;;;;;;25.34;38.08;94862.66;5039652;28;9664;-63
2023/01/29 03:57:01;;;;;;;;;;;;;;;25.33;37.63;94863.94;5041164;28;7706;-63
2023/01/29 03:59:31;;;;;;;;;;;;;;;25.33;38.08;94855.66;5038039;28;7198;-63
2023/01/29 04:02:05;;;;;;;;;;;;;;;25.32;38.13;94865.16;5036386;28;8871;-63
2023/01/29 04:04:37;;;;;;;;;;;;;;;25.33;38.00;94869.44;5043134;28;9107;-63
2023/01/29 04:07:09;;;;;;;;;;;;;;;25.31;38.21;94860.94;5030283;28;7269;-63
2023/01/29 04:09:53;;;;;;;;;;;;;;;25.34;38.46;94863.44;5036585;28;7524;-63
2023/01/29 04:12:32;;;;;;;;;;;;;;;25.33;37.76;94863.94;5037138;28;7284;-63
2023/01/29 04:15:00;;;;;;;;;;;;;;;25.34;37.71;94854.41;5044057;28;9843;-63
2023/01/29 04:17:36;;;;;;;;;;;;;;;25.34;37.47;94859.91;5051419;28;9127;-63
2023/01/29 04:20:08;;;;;;;;;;;;;;;25.34;37.42;94848.91;5072364;28;7006;-63
2023/01/29 04:22:37;;;;;;;;;;;;;;;25.32;38.17;94848.66;5045316;28;9401;-63
2023/01/29 04:25:16;;;;;;;;;;;;;;;25.34;37.44;94851.66;5068783;28;8981;-63
2023/01/29 04:27:49;;;;;;;;;;;;;;;25.34;37.75;94849.66;5046359;28;7252;-62
2023/01/29 04:30:33;;;;;;;;;;;;;;;25.34;37.59;94855.16;5035187;28;8714;-62
2023/01/29 04:33:23;;;;;;;;;;;;;;;25.32;38.12;94837.63;5043640;28;7055;-62
2023/01/29 04:36:12;;;;;;;;;;;;;;;25.34;37.27;94835.13;5072273;28;7756;-62
2023/01/29 04:38:56;;;;;;;;;;;;;;;25.33;37.92;94833.66;5038173;28;9381;-62
2023/01/29 04:41:28;;;;;;;;;;;;;;;25.33;37.93;94841.91;5069386;28;9050;-62
2023/01/29 04:44:27;;;;;;;;;;;;;;;25.33;37.28;94841.91;5041159;28;7139;-62
2023/01/29 04:47:07;;;;;;;;;;;;;;;25.33;38.05;94841.91;4970233;28;7279;-61
2023/01/29 04:50:00;;;;;;;;;;;;;;;25.35;37.67;94831.16;4978387;28;7510;-61
2023/01/29 04:52:52;;;;;;;;;;;;;;;25.34;37.20;94843.41;4969846;28;7372;-61
2023/01/29 04:55:37;;;;;;;;;;;;;;;25.34;37.69;94840.66;4986795;28;8169;-62
2023/01/29 04:58:06;;;;;;;;;;;;;;;25.34;37.27;94837.88;4979417;28;7270;-61
2023/01/29 05:00:43;;;;;;;;;;;;;;;25.34;37.95;94848.91;4988782;28;9371;-63
2023/01/29 05:03:13;;;;;;;;;;;;;;;25.32;37.81;94843.16;4988573;28;7070;-63
2023/01/29 05:05:45;;;;;;;;;;;;;;;25.34;38.15;94851.66;4986786;28;7157;-62
2023/01/29 05:08:16;;;;;;;;;;;;;;;25.32;38.03;94852.16;4983981;28;7375;-62
2023/01/29 05:10:42;;;;;;;;;;;;;;;25.34;37.71;94857.16;4985854;28;8997;-62
2023/01/29 05:13:13;;;;;;;;;;;;;;;25.34;37.55;94859.91;4988473;28;9119;-62
2023/01/29 05:16:01;;;;;;;;;;;;;;;25.35;37.83;94861.44;4988614;28;8994;-62
2023/01/29 05:18:34;;;;;;;;;;;;;;;25.34;37.35;94860.69;4965547;28;7040;-62
2023/01/29 05:21:08;;;;;;;;;;;;;;;25.34;37.65;94859.91;4976477;28;9271;-62
2023/01/29 05:23:35;;;;;;;;;;;;;;;25.34;37.38;94852.41;5005693;28;7248;-62
2023/01/29 05:26:04;;;;;;;;;;;;;;;25.32;37.66;94862.41;5069395;28;9044;-62
2023/01/29 05:28:30;;;;;;;;;;;;;;;25.33;38.05;94863.94;5037418;28;9038;-62
2023/01/29 05:31:01;;;;;;;;;;;;;;;25.33;37.73;94867.44;5054003;28;8732;-62
2023/01/29 05:33:30;;;;;;;;;;;;;;;25.34;37.60;94874.44;5034262;28;7221;-62
2023/01/29 05:36:01;;;;;;;;;;;;;;;25.32;37.33;94876.94;5050020;28;7060;-62
2023/01/29 05:38:42;;;;;;;;;;;;;;;25.32;38.17;94882.44;5056429;28;9528;-62
2023/01/29 05:41:18;;;;;;;;;;;;;;;25.33;37.87;94883.22;5085906;28;7290;-62
2023/01/29 05:44:04;;;;;;;;;;;;;;;25.33;38.35;94888.72;5060768;28;9133;-62
2023/01/29 05:46:50;;;;;;;;;;;;;;;25.33;37.87;94891.47;5040879;28;9042;-62
2023/01/29 05:49:21;;;;;;;;;;;;;;;25.33;37.50;94894.22;5048572;28;8052;-62
2023/01/29 05:51:55;;;;;;;;;;;;;;;25.33;38.25;94885.97;5040565;28;9398;-62
2023/01/29 05:54:37;;;;;;;;;;;;;;;25.32;37.49;94898.22;5056040;28;7888;-62
2023/01/29 05:57:05;;;;;;;;;;;;;;;25.31;37.57;94903.00;5051120;28;7127;-62
2023/01/29 06:00:03;;;;;;;;;;;;;;;25.33;37.88;94916.25;5045140;28;7121;-62
2023/01/29 06:03:25;;;;;;;;;;;;;;;25.33;38.33;94913.50;4996079;28;7029;-62
2023/01/29 06:06:00;;;;;;;;;;;;;;;25.32;37.49;94920.25;4943621;28;6986;-62
2023/01/29 06:08:37;;;;;;;;;;;;;;;25.31;37.77;94921.50;4961097;28;9060;-63
2023/01/29 06:11:20;;;;;;;;;;;;;;;25.31;37.99;94924.25;4972301;28;7725;-63
2023/01/29 06:13:48;;;;;;;;;;;;;;;25.31;37.59;94940.78;4955319;28;9076;-62
2023/01/29 06:16:23;;;;;;;;;;;;;;;25.30;38.18;94936.50;4957509;28;7191;-63
2023/01/29 06:18:49;;;;;;;;;;;;;;;25.31;37.22;94940.78;4970834;28;7267;-62
2023/01/29 06:21:16;;;;;;;;;;;;;;;25.33;38.24;94939.03;4969548;28;9525;-62
2023/01/29 06:24:17;;;;;;;;;;;;;;;25.33;37.56;94944.53;4954625;28;9442;-62
2023/01/29 06:26:44;;;;;;;;;;;;;;;25.33;38.24;94946.53;4917423;29;8743;-62
2023/01/29 06:29:12;;;;;;;;;;;;;;;25.33;37.28;94944.53;4922181;29;7506;-62
2023/01/29 06:31:39;;;;;;;;;;;;;;;25.33;37.53;94954.78;4933781;29;7085;-62
2023/01/29 06:34:07;;;;;;;;;;;;;;;25.34;37.82;94956.28;4923642;29;7371;-62
2023/01/29 06:36:43;;;;;;;;;;;;;;;25.34;37.87;94961.78;4926391;28;8711;-62
2023/01/29 06:39:30;;;;;;;;;;;;;;;25.35;37.32;94957.81;4927722;28;7125;-62
2023/01/29 06:42:28;;;;;;;;;;;;;;;25.34;37.37;94964.56;4953871;28;7457;-62
2023/01/29 06:44:57;;;;;;;;;;;;;;;25.30;37.33;94956.53;4917416;29;7043;-62
2023/01/29 06:47:33;;;;;;;;;;;;;;;25.32;37.58;94961.53;4915296;29;9455;-62
2023/01/29 06:50:09;;;;;;;;;;;;;;;25.34;37.45;94967.31;4913167;29;7165;-62
2023/01/29 06:52:38;;;;;;;;;;;;;;;25.33;38.06;94960.31;4918060;29;7274;-62
2023/01/29 06:55:22;;;;;;;;;;;;;;;25.34;37.31;94968.06;4913963;29;6990;-62
2023/01/29 06:57:48;;;;;;;;;;;;;;;25.32;37.50;94970.56;4934160;28;9348;-62
2023/01/29 07:00:30;;;;;;;;;;;;;;;25.33;37.49;94972.09;4916916;29;7253;-62
2023/01/29 07:03:34;;;;;;;;;;;;;;;25.33;38.01;94965.81;4954612;28;9064;-62
2023/01/29 07:06:45;;;;;;;;;;;;;;;25.35;38.52;94966.06;4895989;29;9079;-62
2023/01/29 07:09:23;;;;;;;;;;;;;;;25.36;37.57;94970.31;4911165;29;7319;-62
2023/01/29 07:11:58;;;;;;;;;;;;;;;25.35;38.17;94966.81;4905404;29;7535;-62
2023/01/29 07:15:00;;;;;;;;;;;;;;;25.38;38.10;94973.34;4907259;29;9073;-62
2023/01/29 07:17:55;;;;;;;;;;;;;;;25.38;38.24;94970.59;4878692;29;9202;-65
2023/01/29 07:20:31;;;;;;;;;;;;;;;25.38;37.89;94962.34;4899369;29;7220;-65
2023/01/29 07:23:16;;;;;;;;;;;;;;;25.38;38.14;94959.59;4903176;29;7039;-65
2023/01/29 07:26:07;;;;;;;;;;;;;;;25.39;38.67;94950.81;4897952;29;7078;-65
2023/01/29 07:28:39;;;;;;;;;;;;;;;25.38;37.71;94948.56;4906005;29;7376;-64
2023/01/29 07:31:07;;;;;;;;;;;;;;;25.36;38.28;94942.78;4915858;29;7418;-64
2023/01/29 07:34:24;;;;;;;;;;;;;;;25.40;38.74;94948.81;4899487;29;9139;-64
2023/01/29 07:37:00;;;;;;;;;;;;;;;25.39;38.65;94936.28;4943284;28;9224;-64
2023/01/29 07:39:48;;;;;;;;;;;;;;;25.37;37.66;94934.03;4990146;28;7287;-65
2023/01/29 07:42:29;;;;;;;;;;;;;;;25.39;37.69;94941.78;4982512;28;7033;-65
2023/01/29 07:45:17;;;;;;;;;;;;;;;25.38;38.96;94934.81;4976478;28;7541;-65
2023/01/29 07:47:44;;;;;;;;;;;;;;;25.37;38.49;94931.28;4981506;28;6991;-64
2023/01/29 07:50:22;;;;;;;;;;;;;;;25.38;38.24;94938.28;4978408;28;9174;-64
2023/01/29 07:52:57;;;;;;;;;;;;;;;25.39;38.36;94937.03;5045874;28;7873;-65
2023/01/29 07:55:26;;;;;;;;;;;;;;;25.39;38.25;94936.28;5037731;28;7043;-65
2023/01/29 07:57:55;;;;;;;;;;;;;;;25.39;38.20;94936.28;5041133;28;7036;-65
2023/01/29 08:00:22;;;;;;;;;;;;;;;25.39;37.76;94936.28;5070521;28;7117;-66
2023/01/29 08:02:49;;;;;;;;;;;;;;;25.41;37.36;94936.53;5073741;28;7027;-65
2023/01/29 08:05:18;;;;;;;;;;;;;;;25.41;37.84;94939.28;5039400;28;7219;-65
2023/01/29 08:07:44;;;;;;;;;;;;;;;25.39;37.69;94936.28;5049751;28;9048;-65
2023/01/29 08:10:11;;;;;;;;;;;;;;;25.42;38.13;94935.34;5050209;28;9352;-65
2023/01/29 08:12:40;;;;;;;;;;;;;;;25.45;37.43;94934.31;5071439;28;7255;-65
2023/01/29 08:15:11;;;;;;;;;;;;;;;25.46;36.64;94938.59;5051763;28;9665;-64
2023/01/29 08:18:14;;;;;;;;;;;;;;;25.45;37.04;94939.09;5049076;28;7990;-65
2023/01/29 08:20:59;;;;;;;;;;;;;;;25.42;37.56;94935.34;5077404;28;7831;-65
2023/01/29 08:23:52;;;;;;;;;;;;;;;25.43;36.88;94936.81;5061999;28;9086;-64
2023/01/29 08:26:18;;;;;;;;;;;;;;;25.41;37.53;94928.28;5086907;28;7434;-65
2023/01/29 08:28:44;;;;;;;;;;;;;;;25.41;37.63;94929.03;5057963;28;7092;-65
2023/01/29 08:31:19;;;;;;;;;;;;;;;25.42;36.95;94935.34;5045476;28;9332;-65
2023/01/29 08:33:46;;;;;;;;;;;;;;;25.41;37.47;94934.53;5044256;28;9153;-65
2023/01/29 08:36:23;;;;;;;;;;;;;;;25.41;37.71;94931.78;5045401;28;6998;-65
2023/01/29 08:39:00;;;;;;;;;;;;;;;25.40;37.72;94935.78;5050724;28;7502;-66
2023/01/29 08:41:38;;;;;;;;;;;;;;;25.43;37.93;94942.34;5051230;28;9279;-66
2023/01/29 08:44:08;;;;;;;;;;;;;;;25.45;37.51;94941.84;5059337;28;7237;-66
2023/01/29 08:46:36;;;;;;;;;;;;;;;25.45;37.27;94945.34;5041482;28;9448;-66
2023/01/29 08:49:05;;;;;;;;;;;;;;;25.43;36.97;94931.31;5032507;28;7286;-66
2023/01/29 08:51:32;;;;;;;;;;;;;;;25.42;37.28;94929.81;5074032;28;8993;-66
2023/01/29 08:54:10;;;;;;;;;;;;;;;25.45;37.73;94939.84;5053075;28;7253;-66
2023/01/29 08:56:37;;;;;;;;;;;;;;;25.45;37.55;94942.59;5051151;28;7099;-66
2023/01/29 08:59:03;;;;;;;;;;;;;;;25.47;37.48;94948.34;5042555;28;9057;-66
2023/01/29 09:01:29;;;;;;;;;;;;;;;25.47;37.46;94947.63;5042760;28;8961;-66
2023/01/29 09:03:56;;;;;;;;;;;;;;;25.48;37.16;94955.38;5043111;28;8991;-66
2023/01/29 09:06:22;;;;;;;;;;;;;;;25.46;37.75;94944.09;5044009;28;7468;-66
2023/01/29 09:08:50;;;;;;;;;;;;;;;25.50;38.01;94955.63;5040941;28;9622;-66
2023/01/29 09:11:16;;;;;;;;;;;;;;;25.49;38.07;94950.63;5053462;28;7290;-66
2023/01/29 09:13:42;;;;;;;;;;;;;;;25.49;37.35;94954.13;5060173;28;7038;-66
2023/01/29 09:16:12;;;;;;;;;;;;;;;25.51;37.40;94956.38;5055935;28;7039;-66
2023/01/29 09:18:38;;;;;;;;;;;;;;;25.51;37.13;94964.66;5056583;28;9202;-66
2023/01/29 09:21:04;;;;;;;;;;;;;;;25.52;37.42;94966.91;5039363;28;9340;-66
2023/01/29 09:23:31;;;;;;;;;;;;;;;25.52;37.57;94972.41;5030539;28;9250;-66
2023/01/29 09:25:57;;;;;;;;;;;;;;;25.54;37.23;94980.16;5054553;28;7034;-66
2023/01/29 09:28:24;;;;;;;;;;;;;;;25.51;37.95;94975.66;5067470;28;7048;-66
2023/01/29 09:30:50;;;;;;;;;;;;;;;25.49;37.97;94981.66;5048619;28;7007;-66
2023/01/29 09:33:17;;;;;;;;;;;;;;;25.50;37.19;94985.94;5035169;28;9053;-66
2023/01/29 09:35:46;;;;;;;;;;;;;;;25.48;37.89;94991.19;5069914;28;7102;-66
2023/01/29 09:38:19;;;;;;;;;;;;;;;25.50;37.50;94996.19;5038105;28;8774;-66
2023/01/29 09:40:55;;;;;;;;;;;;;;;25.48;37.73;94993.94;5042038;28;7207;-66
2023/01/29 09:43:44;;;;;;;;;;;;;;;25.51;37.46;95005.97;5056986;28;7268;-66
2023/01/29 09:46:43;;;;;;;;;;;;;;;25.48;37.66;94996.69;5044267;28;8661;-66
2023/01/29 09:49:34;;;;;;;;;;;;;;;25.51;37.75;94997.69;5048211;28;7497;-67
2023/01/29 09:52:25;;;;;;;;;;;;;;;25.50;37.11;95002.44;5062327;28;8883;-61
2023/01/29 09:55:03;;;;;;;;;;;;;;;25.52;36.79;95010.22;5048129;28;8215;-61
2023/01/29 09:57:45;;;;;;;;;;;;;;;25.51;37.66;95001.22;5040938;28;9306;-61
2023/01/29 10:00:22;;;;;;;;;;;;;;;25.51;37.89;95005.97;5049587;28;8724;-61
2023/01/29 10:03:20;;;;;;;;;;;;;;;25.52;37.22;95010.97;5041721;28;9358;-61
2023/01/29 10:06:26;;;;;;;;;;;;;;;25.52;36.84;95015.72;5047192;28;7504;-61
2023/01/29 10:09:23;;;;;;;;;;;;;;;25.53;37.13;95012.50;5035771;28;7022;-61
2023/01/29 10:12:12;;;;;;;;;;;;;;;25.51;37.92;95009.47;5045436;28;7273;-61
2023/01/29 10:14:45;;;;;;;;;;;;;;;25.54;37.72;95018.72;4955069;28;6897;-61
2023/01/29 10:17:49;;;;;;;;;;;;;;;25.53;38.02;95009.75;4961977;28;7682;-61
2023/01/29 10:20:39;;;;;;;;;;;;;;;25.53;37.97;95009.75;4987568;28;7262;-61
2023/01/29 10:23:19;;;;;;;;;;;;;;;25.54;37.35;95007.72;4969328;28;9110;-61
2023/01/29 10:25:47;;;;;;;;;;;;;;;25.54;37.64;95011.22;4972681;28;7027;-61
2023/01/29 10:28:17;;;;;;;;;;;;;;;25.54;37.33;95013.22;4988341;28;7965;-61
2023/01/29 10:30:49;;;;;;;;;;;;;;;25.52;37.69;95008.22;4977993;28;9382;-61
2023/01/29 10:33:45;;;;;;;;;;;;;;;25.54;37.19;95013.22;4989143;28;7285;-61
2023/01/29 10:36:36;;;;;;;;;;;;;;;25.54;37.84;95019.50;4989903;28;8990;-61
2023/01/29 10:39:11;;;;;;;;;;;;;;;25.56;37.37;95021.75;4972939;28;9343;-61
2023/01/29 10:42:20;;;;;;;;;;;;;;;25.55;37.01;95015.50;4963637;28;7182;-61
2023/01/29 10:44:54;;;;;;;;;;;;;;;25.54;38.02;95019.50;4988801;28;7018;-61
2023/01/29 10:51:40;;;;;;;;;;;;;;;25.56;37.14;95013.47;4982653;28;7033;-61
2023/01/29 10:54:52;;;;;;;;;;;;;;;25.56;37.97;95017.00;5031752;28;6930;-61
2023/01/29 10:58:02;;;;;;;;;;;;;;;25.56;38.10;95024.50;4995408;28;7471;-61
2023/01/29 11:00:40;;;;;;;;;;;;;;;25.55;37.91;95026.50;4991435;28;7262;-61
2023/01/29 11:03:42;;;;;;;;;;;;;;;25.55;37.32;95034.03;4991790;28;7010;-56
2023/01/29 11:06:36;;;;;;;;;;;;;;;25.55;36.99;95025.75;4972523;28;7547;-56
2023/01/29 11:09:23;;;;;;;;;;;;;;;25.55;37.43;95029.28;5000821;28;7260;-56
2023/01/29 11:12:01;;;;;;;;;;;;;;;25.52;37.81;95016.47;4990465;28;7248;-56
2023/01/29 11:14:52;;;;;;;;;;;;;;;25.55;37.07;95010.00;4991407;28;7058;-56
2023/01/29 11:17:26;;;;;;;;;;;;;;;25.54;37.62;95007.72;4991749;28;9159;-56
2023/01/29 11:19:56;;;;;;;;;;;;;;;25.56;37.31;95000.47;4990562;28;7314;-56
2023/01/29 11:22:33;;;;;;;;;;;;;;;25.55;38.02;94996.22;4974129;28;9163;-56
2023/01/29 11:25:17;;;;;;;;;;;;;;;25.55;37.29;94987.94;4997460;28;7050;-56
2023/01/29 11:27:53;;;;;;;;;;;;;;;25.56;37.06;94991.44;4991191;28;7223;-66
2023/01/29 11:30:26;;;;;;;;;;;;;;;25.57;37.00;94990.97;4990397;28;9353;-66
2023/01/29 11:33:10;;;;;;;;;;;;;;;25.55;37.54;94987.94;4991484;28;8710;-65
2023/01/29 11:35:37;;;;;;;;;;;;;;;25.57;37.11;94992.97;5034705;28;7054;-65
2023/01/29 11:38:17;;;;;;;;;;;;;;;25.56;37.21;94986.69;5047570;28;7149;-65
2023/01/29 11:40:43;;;;;;;;;;;;;;;25.57;37.43;94985.44;5062106;28;9348;-65
2023/01/29 11:43:17;;;;;;;;;;;;;;;25.57;37.42;94984.69;5046343;28;7259;-65
2023/01/29 11:45:49;;;;;;;;;;;;;;;25.54;37.29;94980.94;5046019;28;7040;-65
2023/01/29 11:48:21;;;;;;;;;;;;;;;25.55;37.63;94976.94;5029334;28;9791;-65
2023/01/29 11:50:55;;;;;;;;;;;;;;;25.56;37.04;94972.91;5079664;28;9400;-66
2023/01/29 11:53:37;;;;;;;;;;;;;;;25.57;37.74;94968.94;5031911;28;8698;-65
2023/01/29 11:56:21;;;;;;;;;;;;;;;25.56;36.99;94961.13;5046731;28;7247;-66
2023/01/29 11:58:50;;;;;;;;;;;;;;;25.59;36.83;94976.69;5036246;28;9086;-65
2023/01/29 12:01:31;;;;;;;;;;;;;;;25.57;37.22;94968.94;5051271;28;7328;-66
2023/01/29 12:03:59;;;;;;;;;;;;;;;25.59;37.90;94960.16;5045155;28;8724;-65
2023/01/29 12:06:41;;;;;;;;;;;;;;;25.59;37.75;94957.41;5029525;28;9076;-65
2023/01/29 12:09:18;;;;;;;;;;;;;;;25.57;37.14;94946.88;5035656;28;7299;-65
2023/01/29 12:11:44;;;;;;;;;;;;;;;25.59;37.88;94949.13;5041256;28;7303;-65
2023/01/29 12:14:32;;;;;;;;;;;;;;;25.57;37.02;94941.38;5032730;28;7330;-65
2023/01/29 12:17:22;;;;;;;;;;;;;;;25.59;37.84;94938.88;5047910;28;8993;-65
2023/01/29 12:19:58;;;;;;;;;;;;;;;25.60;37.11;94945.16;5034807;28;8698;-65
2023/01/29 12:22:33;;;;;;;;;;;;;;;25.59;37.92;94933.38;5051441;28;9554;-66
2023/01/29 12:25:22;;;;;;;;;;;;;;;25.60;37.64;94934.13;5064893;28;9394;-66
2023/01/29 12:28:14;;;;;;;;;;;;;;;25.59;37.21;94927.84;5048450;28;8784;-65
2023/01/29 12:31:00;;;;;;;;;;;;;;;25.59;37.80;94927.09;5041048;28;9386;-66
2023/01/29 12:33:39;;;;;;;;;;;;;;;25.59;36.96;94930.63;5029599;28;9075;-66
2023/01/29 12:36:14;;;;;;;;;;;;;;;25.61;37.12;94933.63;5048267;28;7892;-66
2023/01/29 12:38:43;;;;;;;;;;;;;;;25.62;36.79;94937.13;5039026;28;8995;-65
2023/01/29 12:41:49;;;;;;;;;;;;;;;25.60;36.80;94932.09;5033724;28;7071;-65
2023/01/29 12:44:24;;;;;;;;;;;;;;;25.59;37.72;94936.13;5044997;28;8765;-65
2023/01/29 12:47:27;;;;;;;;;;;;;;;25.61;36.85;94933.63;5045033;28;8429;-65
2023/01/29 12:50:26;;;;;;;;;;;;;;;25.60;36.93;94926.59;5023659;28;7040;-65
2023/01/29 12:53:01;;;;;;;;;;;;;;;25.63;36.88;94933.13;5004527;28;6964;-66
2023/01/29 12:55:34;;;;;;;;;;;;;;;25.62;36.81;94926.84;5026338;28;9297;-66
2023/01/29 12:58:15;;;;;;;;;;;;;;;25.62;37.11;94932.34;4998974;28;7446;-65
2023/01/29 13:00:47;;;;;;;;;;;;;;;25.61;37.21;94930.88;4999308;28;6998;-65
2023/01/29 13:03:18;;;;;;;;;;;;;;;25.63;37.81;94933.13;5007131;28;9030;-66
2023/01/29 13:06:02;;;;;;;;;;;;;;;25.61;37.25;94933.63;5016539;28;7268;-65
2023/01/29 13:09:02;;;;;;;;;;;;;;;25.61;37.69;94933.63;5013037;28;9363;-65
2023/01/29 13:12:11;;;;;;;;;;;;;;;25.63;37.16;94933.13;5029350;28;9090;-66
2023/01/29 13:15:15;;;;;;;;;;;;;;;25.63;37.12;94922.09;5009819;28;7087;-66
2023/01/29 13:18:01;;;;;;;;;;;;;;;25.62;37.43;94921.34;5016686;28;7271;-65
2023/01/29 13:20:32;;;;;;;;;;;;;;;25.63;37.22;94922.84;5032120;28;7524;-65
2023/01/29 13:23:14;;;;;;;;;;;;;;;25.66;37.23;94921.13;5032517;28;7278;-66
2023/01/29 13:25:44;;;;;;;;;;;;;;;25.65;36.77;94914.09;5025448;28;7282;-65
2023/01/29 13:28:20;;;;;;;;;;;;;;;25.65;36.70;94917.59;5057293;28;7581;-65
2023/01/29 13:31:08;;;;;;;;;;;;;;;25.66;36.97;94913.59;5039429;28;9121;-65
2023/01/29 13:34:00;;;;;;;;;;;;;;;25.67;37.28;94922.59;5038639;28;7350;-65
2023/01/29 13:36:39;;;;;;;;;;;;;;;25.69;37.47;94920.84;5044705;28;9047;-65
2023/01/29 13:39:30;;;;;;;;;;;;;;;25.68;36.92;94913.09;5039768;28;9061;-66
2023/01/29 13:42:02;;;;;;;;;;;;;;;25.63;36.61;94909.09;5045477;28;7203;-66
2023/01/29 13:44:36;;;;;;;;;;;;;;;25.67;36.60;94914.34;5058354;28;7312;-66
2023/01/29 13:47:21;;;;;;;;;;;;;;;25.67;36.30;94923.38;5046820;28;9018;-67
2023/01/29 13:49:55;;;;;;;;;;;;;;;25.66;36.59;94926.63;5041087;28;9187;-67
2023/01/29 13:56:41;;;;;;;;;;;;;;;25.68;37.41;94910.34;5001081;28;7230;-67
2023/01/29 13:59:47;;;;;;;;;;;;;;;25.67;36.46;94906.84;4999339;28;7217;-68
2023/01/29 14:02:43;;;;;;;;;;;;;;;25.68;36.61;94907.59;4911437;29;9033;-68
2023/01/29 14:05:36;;;;;;;;;;;;;;;25.70;36.19;94905.84;4874790;29;8732;-67
2023/01/29 14:08:25;;;;;;;;;;;;;;;25.71;36.03;94907.34;4876104;29;7330;-67
2023/01/29 14:11:14;;;;;;;;;;;;;;;25.73;36.53;94906.84;4882456;29;7665;-67
2023/01/29 14:13:42;;;;;;;;;;;;;;;25.70;36.39;94897.56;4881256;29;9448;-67
2023/01/29 14:16:13;;;;;;;;;;;;;;;25.72;36.00;94891.56;4892075;29;9149;-68
2023/01/29 14:18:54;;;;;;;;;;;;;;;25.72;36.51;94889.56;4874663;29;7112;-68
2023/01/29 14:21:50;;;;;;;;;;;;;;;25.72;36.67;94891.56;4878121;29;9025;-68
2023/01/29 14:24:30;;;;;;;;;;;;;;;25.72;36.11;94888.81;4835161;29;7631;-67
2023/01/29 14:26:56;;;;;;;;;;;;;;;25.72;36.50;94875.03;4848399;29;6931;-68
2023/01/29 14:29:27;;;;;;;;;;;;;;;25.75;36.48;94874.78;4833437;29;7295;-66